YPTN/KTR METAR and TAF weather

Enter ICAO airport designator
Station Type Date Time Source
YPTN METAR 2020/09/21 10:00 UTC NOAA

YPTN 211000Z AUTO 01005KT 9999 // NCD 35/17 Q1008 RF00.0/000.0


Station Type Date Time Source
YPTN Decoded METAR 2020/09/21 10:00 UTC NOAA

Tindal / Katherine, Australia (YPTN) 14-26S 132-16E 109M
Sep 21, 2020 - 06:00 AM EDT / 2020.09.21 1000 UTC
Wind: from the N (010 degrees) at 6 MPH (5 KT):0
Visibility: greater than 7 mile(s):0
Temperature: 95 F (35 C)
Heat index: 96.1 F (35.6 C):1
Dew Point: 62 F (17 C)
Relative Humidity: 34%
Pressure (altimeter): 29.77 in. Hg (1008 hPa)
ob: YPTN 211000Z AUTO 01005KT 9999 // NCD 35/17 Q1008 RF00.0/000.0
cycle: 10

Station Type Date Time Source
YPTN TAF 2020/09/21 06:03 UTC NOAA

TAF TAF YPTN 210455Z 2106/2206 VRB04KT CAVOK
FM211600 32005KT 9999 FEW030
FM220400 07006KT CAVOK

Example: see airport list